Weather at Koro Island Airport

Public forecast

Using degrees Celsius for public forecast. Weather courtesy of forecast.io.

Closest aviation weather report (METAR) to Koro Island Airport

Report is more than 6 hours old.

Closest report is Savusavu Airport, 32.9 nm (61.0 km) N. Retrieved 2020/09/23 00:00 UTC (4 days ago):

NFNS 230000Z AUTO 10007KT 060V160 //// ///// Q////

Closest aviation forecast (TAF) to Koro Island Airport

Closest forecast is Nausori International Airport, 64.7 nm (119.9 km) SW. Retrieved 2020/09/26 12:00 UTC (7 seconds ago):

TAF NFNA 261116Z 2612/2712 11005KT 9999 SCT020